Time;durP1;ratioP1;P1;durP2;ratioP2;P2;SDS_P1;SDS_P2;PMS_P1;PMS_P2;Temp;Humidity;BMP_temperature;BMP_pressure;BME280_temperature;BME280_humidity;BME280_pressure;Samples;Min_cycle;Max_cycle;Signal;HPM_P1;HPM_P2
2022/05/21 00:01:20;;;;;;;;;;;27.00;43.70;;;;;;1582042;75;1129;-60
2022/05/21 00:03:22;;;;;;;;;;;27.00;43.90;;;;;;1577805;75;709;-61
2022/05/21 00:05:24;;;;;;;;;;;27.00;43.90;;;;;;1568804;75;756;-60
2022/05/21 00:07:27;;;;;;;;;;;27.00;43.90;;;;;;1562642;75;791;-62
2022/05/21 00:09:28;;;;;;;;;;;27.10;44.00;;;;;;1570380;75;1317;-60
2022/05/21 00:11:30;;;;;;;;;;;27.00;44.10;;;;;;1579673;75;1121;-61
2022/05/21 00:13:32;;;;;;;;;;;27.00;44.10;;;;;;1579358;75;1918;-60
2022/05/21 00:15:34;;;;;;;;;;;26.90;43.40;;;;;;1574699;75;719;-59
2022/05/21 00:17:36;;;;;;;;;;;26.90;43.40;;;;;;1585608;75;624;-59
2022/05/21 00:19:38;;;;;;;;;;;26.90;43.50;;;;;;1574646;75;804;-59
2022/05/21 00:21:40;;;;;;;;;;;27.00;44.10;;;;;;1562941;75;1141;-60
2022/05/21 00:23:42;;;;;;;;;;;27.00;44.10;;;;;;1578737;75;1464;-61
2022/05/21 00:25:45;;;;;;;;;;;27.10;44.20;;;;;;1575657;75;948;-60
2022/05/21 00:27:46;;;;;;;;;;;27.00;44.10;;;;;;1568595;75;746;-59
2022/05/21 00:29:48;;;;;;;;;;;27.00;44.20;;;;;;1567176;75;1192;-61
2022/05/21 00:31:50;;;;;;;;;;;27.00;44.00;;;;;;1572538;75;633;-60
2022/05/21 00:33:52;;;;;;;;;;;27.00;44.10;;;;;;1567049;75;1919;-61
2022/05/21 00:35:54;;;;;;;;;;;27.00;44.00;;;;;;1572939;75;680;-60
2022/05/21 00:37:56;;;;;;;;;;;26.90;43.40;;;;;;1567668;75;1594;-60
2022/05/21 00:39:58;;;;;;;;;;;27.00;44.10;;;;;;1573204;75;1120;-60
2022/05/21 00:42:06;;;;;;;;;;;27.00;44.10;;;;;;1575400;75;787;-60
2022/05/21 00:44:08;;;;;;;;;;;27.00;44.20;;;;;;1570373;75;861;-60
2022/05/21 00:46:12;;;;;;;;;;;27.00;44.30;;;;;;1571065;75;881;-60
2022/05/21 00:48:14;;;;;;;;;;;27.00;44.40;;;;;;1577425;75;749;-59
2022/05/21 00:50:17;;;;;;;;;;;27.00;44.40;;;;;;1579318;75;1171;-60
2022/05/21 00:52:20;;;;;;;;;;;27.00;44.40;;;;;;1582501;75;1580;-59
2022/05/21 00:54:26;;;;;;;;;;;27.00;44.50;;;;;;1579999;75;1913;-60
2022/05/21 00:56:28;;;;;;;;;;;26.90;43.80;;;;;;1583778;75;849;-60
2022/05/21 01:00:50;;;;;;;;;;;26.90;43.70;;;;;;1582991;75;1694;-60
2022/05/21 01:02:56;;;;;;;;;;;26.90;43.80;;;;;;1576600;75;726;-60
2022/05/21 01:04:58;;;;;;;;;;;26.90;43.90;;;;;;1582990;75;1371;-61
2022/05/21 01:07:00;;;;;;;;;;;26.90;43.80;;;;;;1583704;75;725;-62
2022/05/21 01:09:02;;;;;;;;;;;26.90;43.90;;;;;;1577789;75;608;-59
2022/05/21 01:11:03;;;;;;;;;;;26.90;43.90;;;;;;1580682;75;1161;-61
2022/05/21 01:13:07;;;;;;;;;;;26.90;43.80;;;;;;1583865;75;1927;-61
2022/05/21 01:15:13;;;;;;;;;;;26.90;43.90;;;;;;1583219;75;811;-61
2022/05/21 01:17:16;;;;;;;;;;;26.90;43.90;;;;;;1581338;75;709;-61
2022/05/21 01:19:18;;;;;;;;;;;26.90;44.00;;;;;;1581785;75;1498;-60
2022/05/21 01:21:20;;;;;;;;;;;26.90;44.00;;;;;;1580698;75;1154;-61
2022/05/21 01:23:22;;;;;;;;;;;26.90;43.90;;;;;;1581161;75;670;-59
2022/05/21 01:25:24;;;;;;;;;;;26.90;44.10;;;;;;1581006;75;726;-59
2022/05/21 01:27:27;;;;;;;;;;;26.90;44.00;;;;;;1583760;75;702;-60
2022/05/21 01:29:28;;;;;;;;;;;26.90;44.00;;;;;;1583526;75;684;-60
2022/05/21 01:31:36;;;;;;;;;;;26.90;44.10;;;;;;1583513;75;1109;-60
2022/05/21 01:33:36;;;;;;;;;;;26.90;44.10;;;;;;1579927;75;1923;-59
2022/05/21 01:35:39;;;;;;;;;;;26.90;44.20;;;;;;1581057;75;806;-61
2022/05/21 01:37:41;;;;;;;;;;;26.80;44.20;;;;;;1581145;75;727;-61
2022/05/21 01:39:43;;;;;;;;;;;26.90;44.20;;;;;;1581147;75;1146;-60
2022/05/21 01:41:45;;;;;;;;;;;26.90;44.10;;;;;;1579576;75;734;-56
2022/05/21 01:46:07;;;;;;;;;;;26.90;44.10;;;;;;1582423;75;1615;-57
2022/05/21 01:48:09;;;;;;;;;;;26.90;44.10;;;;;;1582221;75;1480;-59
2022/05/21 01:50:11;;;;;;;;;;;26.90;44.10;;;;;;1583713;75;1145;-58
2022/05/21 01:52:13;;;;;;;;;;;26.90;44.10;;;;;;1576809;75;720;-60
2022/05/21 01:54:15;;;;;;;;;;;26.90;44.20;;;;;;1580022;75;1923;-59
2022/05/21 01:56:17;;;;;;;;;;;26.90;44.10;;;;;;1580665;75;747;-61
2022/05/21 01:58:19;;;;;;;;;;;26.90;44.10;;;;;;1580898;75;783;-60
2022/05/21 02:00:21;;;;;;;;;;;26.90;44.10;;;;;;1583742;75;1161;-61
2022/05/21 02:02:23;;;;;;;;;;;26.90;44.10;;;;;;1580750;75;1382;-58
2022/05/21 02:04:25;;;;;;;;;;;26.80;44.20;;;;;;1580490;75;919;-60
2022/05/21 02:06:28;;;;;;;;;;;26.90;44.20;;;;;;1586769;75;746;-60
2022/05/21 02:08:29;;;;;;;;;;;26.90;44.20;;;;;;1577840;75;746;-57
2022/05/21 02:10:32;;;;;;;;;;;26.80;44.20;;;;;;1580991;75;1145;-60
2022/05/21 02:12:33;;;;;;;;;;;26.80;44.20;;;;;;1579100;75;741;-59
2022/05/21 02:14:35;;;;;;;;;;;26.90;44.20;;;;;;1583699;75;1931;-60
2022/05/21 02:16:37;;;;;;;;;;;26.80;44.20;;;;;;1578647;75;1516;-59
2022/05/21 02:18:39;;;;;;;;;;;26.90;44.20;;;;;;1575623;75;836;-58
2022/05/21 02:20:41;;;;;;;;;;;26.90;44.20;;;;;;1583389;75;1118;-59
2022/05/21 02:22:43;;;;;;;;;;;26.90;44.20;;;;;;1583596;75;931;-60
2022/05/21 02:27:11;;;;;;;;;;;26.90;44.10;;;;;;1604475;73;1537;-60
2022/05/21 02:29:12;;;;;;;;;;;26.80;44.20;;;;;;1605479;74;1562;-60
2022/05/21 02:31:14;;;;;;;;;;;26.90;44.20;;;;;;1584578;74;1206;-62
2022/05/21 02:33:16;;;;;;;;;;;26.90;44.20;;;;;;1577478;75;1938;-62
2022/05/21 02:35:18;;;;;;;;;;;26.90;44.20;;;;;;1574981;75;774;-60
2022/05/21 02:39:39;;;;;;;;;;;26.80;44.30;;;;;;1577827;75;718;-59
2022/05/21 02:41:41;;;;;;;;;;;26.80;44.30;;;;;;1581019;74;1140;-60
2022/05/21 02:43:43;;;;;;;;;;;26.80;44.20;;;;;;1575190;74;1563;-61
2022/05/21 02:45:45;;;;;;;;;;;26.80;44.40;;;;;;1574796;75;739;-60
2022/05/21 02:47:47;;;;;;;;;;;26.80;44.40;;;;;;1574839;75;718;-59
2022/05/21 02:49:49;;;;;;;;;;;26.80;44.40;;;;;;1575505;75;1144;-59
2022/05/21 02:51:51;;;;;;;;;;;26.80;44.40;;;;;;1577521;75;780;-58
2022/05/21 02:53:53;;;;;;;;;;;26.70;44.40;;;;;;1575475;75;1941;-60
2022/05/21 02:55:55;;;;;;;;;;;26.80;44.40;;;;;;1577725;74;726;-60
2022/05/21 02:57:57;;;;;;;;;;;26.90;44.40;;;;;;1576866;75;1568;-60
2022/05/21 03:00:02;;;;;;;;;;;26.80;44.40;;;;;;1577641;75;1138;-59
2022/05/21 03:02:04;;;;;;;;;;;26.80;44.40;;;;;;1577647;75;664;-59
2022/05/21 03:04:07;;;;;;;;;;;26.80;44.40;;;;;;1577087;75;796;-59
2022/05/21 03:06:09;;;;;;;;;;;26.90;44.40;;;;;;1577812;75;782;-63
2022/05/21 03:10:31;;;;;;;;;;;26.80;44.40;;;;;;1573924;74;1609;-60
2022/05/21 03:12:33;;;;;;;;;;;26.80;44.50;;;;;;1563982;75;1686;-60
2022/05/21 03:14:35;;;;;;;;;;;26.80;44.40;;;;;;1577748;74;1941;-59
2022/05/21 03:16:36;;;;;;;;;;;26.80;44.40;;;;;;1576492;75;750;-61
2022/05/21 03:18:38;;;;;;;;;;;26.80;44.40;;;;;;1575244;74;772;-60
2022/05/21 03:20:40;;;;;;;;;;;26.70;44.40;;;;;;1580132;71;227223;-69
2022/05/21 03:22:42;;;;;;;;;;;26.80;44.40;;;;;;1591597;74;691;-70
2022/05/21 03:24:44;;;;;;;;;;;26.80;44.50;;;;;;1604475;73;738;-69
2022/05/21 03:26:46;;;;;;;;;;;26.70;44.50;;;;;;1587819;74;1569;-70
2022/05/21 03:28:48;;;;;;;;;;;26.70;44.60;;;;;;1578640;74;692;-71
2022/05/21 03:30:50;;;;;;;;;;;26.70;44.60;;;;;;1587783;73;1180;-69
2022/05/21 03:32:52;;;;;;;;;;;26.70;44.60;;;;;;1592358;75;698;-72
2022/05/21 03:34:54;;;;;;;;;;;26.80;44.60;;;;;;1587132;75;1921;-70
2022/05/21 03:36:56;;;;;;;;;;;26.70;44.70;;;;;;1588470;74;712;-71
2022/05/21 03:38:58;;;;;;;;;;;26.80;44.60;;;;;;1586446;74;754;-71
2022/05/21 03:41:00;;;;;;;;;;;26.80;44.60;;;;;;1590020;73;1597;-71
2022/05/21 03:43:03;;;;;;;;;;;26.80;44.60;;;;;;1592260;75;713;-72
2022/05/21 03:45:05;;;;;;;;;;;26.70;44.70;;;;;;1592252;74;798;-71
2022/05/21 03:47:07;;;;;;;;;;;26.80;44.60;;;;;;1592110;74;777;-71
2022/05/21 03:49:09;;;;;;;;;;;26.80;44.60;;;;;;1591799;74;778;-71
2022/05/21 03:51:11;;;;;;;;;;;26.70;44.60;;;;;;1592159;73;1122;-71
2022/05/21 03:53:14;;;;;;;;;;;26.70;44.70;;;;;;1584515;74;741;-71
2022/05/21 03:55:16;;;;;;;;;;;26.80;44.60;;;;;;1591954;74;1969;-70
2022/05/21 03:57:18;;;;;;;;;;;26.80;44.50;;;;;;1592014;74;609;-70
2022/05/21 03:59:20;;;;;;;;;;;26.80;44.70;;;;;;1587196;73;1041;-71
2022/05/21 04:01:22;;;;;;;;;;;26.80;44.70;;;;;;1592136;74;695;-73
2022/05/21 04:03:24;;;;;;;;;;;26.70;44.70;;;;;;1588052;74;758;-72
2022/05/21 04:05:26;;;;;;;;;;;26.80;44.70;;;;;;1592069;74;812;-72
2022/05/21 04:07:29;;;;;;;;;;;26.70;44.70;;;;;;1592004;74;793;-73
2022/05/21 04:09:31;;;;;;;;;;;26.80;44.70;;;;;;1596276;73;1773;-69
2022/05/21 04:11:32;;;;;;;;;;;26.70;44.80;;;;;;1592015;74;1284;-68
2022/05/21 04:13:34;;;;;;;;;;;26.80;44.70;;;;;;1591889;74;778;-69
2022/05/21 04:15:36;;;;;;;;;;;26.70;44.70;;;;;;1588226;74;1946;-70
2022/05/21 04:17:38;;;;;;;;;;;26.80;44.70;;;;;;1592029;74;617;-69
2022/05/21 04:19:40;;;;;;;;;;;26.80;44.70;;;;;;1586037;73;1138;-69
2022/05/21 04:21:42;;;;;;;;;;;26.70;44.70;;;;;;1592147;74;1211;-70
2022/05/21 04:23:44;;;;;;;;;;;26.70;44.80;;;;;;1591219;73;695;-70
2022/05/21 04:25:47;;;;;;;;;;;26.70;44.80;;;;;;1589620;74;688;-72
2022/05/21 04:27:49;;;;;;;;;;;26.70;44.80;;;;;;1592057;74;736;-73
2022/05/21 04:29:50;;;;;;;;;;;26.80;44.80;;;;;;1587856;73;1175;-74
2022/05/21 04:31:52;;;;;;;;;;;26.70;44.80;;;;;;1592144;74;653;-72
2022/05/21 04:33:54;;;;;;;;;;;26.70;44.80;;;;;;1588201;74;707;-72
2022/05/21 04:38:16;;;;;;;;;;;26.70;44.90;;;;;;1592043;74;1608;-72
2022/05/21 04:40:19;;;;;;;;;;;26.70;44.90;;;;;;1586276;73;1147;-73
2022/05/21 04:42:21;;;;;;;;;;;26.70;44.90;;;;;;1592157;74;740;-73
2022/05/21 04:44:25;;;;;;;;;;;26.70;44.90;;;;;;1592086;74;666;-72
2022/05/21 04:46:26;;;;;;;;;;;26.70;44.90;;;;;;1591904;74;1709;-75
2022/05/21 04:48:28;;;;;;;;;;;26.70;44.90;;;;;;1592188;75;652;-73
2022/05/21 04:50:30;;;;;;;;;;;26.70;44.80;;;;;;1591015;73;1585;-73
2022/05/21 04:52:32;;;;;;;;;;;26.70;44.90;;;;;;1596508;73;934;-72
2022/05/21 04:54:35;;;;;;;;;;;26.60;44.80;;;;;;1591966;74;1941;-72
2022/05/21 04:56:37;;;;;;;;;;;26.70;44.90;;;;;;1558944;75;670;-73
2022/05/21 04:58:39;;;;;;;;;;;26.60;44.80;;;;;;1590874;74;661;-72
2022/05/21 05:00:41;;;;;;;;;;;26.70;44.90;;;;;;1587742;73;1155;-71
2022/05/21 05:02:43;;;;;;;;;;;26.70;44.90;;;;;;1591963;74;742;-71
2022/05/21 05:04:45;;;;;;;;;;;26.70;44.90;;;;;;1589737;74;1430;-72
2022/05/21 05:06:47;;;;;;;;;;;26.80;44.80;;;;;;1594083;73;674;-72
2022/05/21 05:08:48;;;;;;;;;;;26.70;44.80;;;;;;1591927;74;677;-71
2022/05/21 05:10:50;;;;;;;;;;;26.70;44.80;;;;;;1590404;73;1136;-72
2022/05/21 05:12:52;;;;;;;;;;;26.80;44.90;;;;;;1589331;74;691;-71
2022/05/21 05:14:54;;;;;;;;;;;26.80;44.80;;;;;;1591109;74;1929;-72
2022/05/21 05:16:56;;;;;;;;;;;26.80;44.90;;;;;;1591748;74;751;-73
2022/05/21 05:18:58;;;;;;;;;;;26.80;44.90;;;;;;1589141;74;1576;-72
2022/05/21 05:21:01;;;;;;;;;;;26.80;45.00;;;;;;1590693;73;1126;-72
2022/05/21 05:23:04;;;;;;;;;;;26.80;45.20;;;;;;1591936;74;683;-71
2022/05/21 05:25:06;;;;;;;;;;;26.70;45.20;;;;;;1589884;74;1257;-71
2022/05/21 05:27:08;;;;;;;;;;;26.70;45.20;;;;;;1591923;74;778;-72
2022/05/21 05:29:10;;;;;;;;;;;26.80;45.20;;;;;;1588158;74;715;-71
2022/05/21 05:31:12;;;;;;;;;;;26.80;45.20;;;;;;1589333;74;1248;-72
2022/05/21 05:33:14;;;;;;;;;;;26.80;45.20;;;;;;1591926;73;1440;-70
2022/05/21 05:35:16;;;;;;;;;;;26.80;45.10;;;;;;1591536;74;1948;-62
2022/05/21 05:37:18;;;;;;;;;;;26.70;45.00;;;;;;1588185;74;712;-66
2022/05/21 05:39:20;;;;;;;;;;;26.80;45.10;;;;;;1591977;73;1156;-65
2022/05/21 05:41:23;;;;;;;;;;;26.70;45.10;;;;;;1590017;74;786;-65
2022/05/21 05:43:25;;;;;;;;;;;26.80;45.00;;;;;;1588247;74;788;-63
2022/05/21 05:45:26;;;;;;;;;;;26.70;45.20;;;;;;1591883;74;939;-65
2022/05/21 05:47:28;;;;;;;;;;;26.80;45.20;;;;;;1586875;75;1567;-64
2022/05/21 05:49:30;;;;;;;;;;;26.80;45.00;;;;;;1593334;73;1067;-66
2022/05/21 05:51:33;;;;;;;;;;;26.80;45.00;;;;;;1589851;74;685;-64
2022/05/21 05:53:34;;;;;;;;;;;26.70;44.80;;;;;;1591799;74;780;-64
2022/05/21 05:55:36;;;;;;;;;;;26.70;45.00;;;;;;1589808;74;1943;-65
2022/05/21 05:57:39;;;;;;;;;;;26.70;45.00;;;;;;1588280;74;740;-64
2022/05/21 05:59:50;;;;;;;;;;;26.70;45.00;;;;;;1591582;73;1141;-64
2022/05/21 06:02:57;;;;;;;;;;;26.60;45.00;;;;;;1589553;74;1748;-65
2022/05/21 06:03:55;;;;;;;;;;;26.60;44.70;;;;;;1588719;73;1449;-65
2022/05/21 06:05:57;;;;;;;;;;;26.70;45.00;;;;;;1590185;75;754;-65
2022/05/21 06:08:00;;;;;;;;;;;26.60;44.80;;;;;;1581282;75;686;-64
2022/05/21 06:10:03;;;;;;;;;;;26.60;44.80;;;;;;1586131;74;1163;-64
2022/05/21 06:12:07;;;;;;;;;;;26.60;44.70;;;;;;1591891;74;671;-65
2022/05/21 06:14:09;;;;;;;;;;;26.60;44.60;;;;;;1594477;74;1566;-64
2022/05/21 06:16:11;;;;;;;;;;;26.50;44.60;;;;;;1594018;74;1901;-64
2022/05/21 06:18:13;;;;;;;;;;;26.50;44.60;;;;;;1594198;74;1132;-65
2022/05/21 06:20:15;;;;;;;;;;;26.50;44.60;;;;;;1593333;74;1151;-65
2022/05/21 06:22:17;;;;;;;;;;;26.40;44.50;;;;;;1594421;74;789;-66
2022/05/21 06:24:19;;;;;;;;;;;26.40;44.60;;;;;;1593019;74;645;-65
2022/05/21 06:26:21;;;;;;;;;;;26.40;44.60;;;;;;1594156;74;668;-65
2022/05/21 06:28:23;;;;;;;;;;;26.40;44.60;;;;;;1592470;74;1542;-62
2022/05/21 06:30:26;;;;;;;;;;;26.40;44.60;;;;;;1595625;73;1174;-64
2022/05/21 06:32:28;;;;;;;;;;;26.30;44.50;;;;;;1606626;73;712;-66
2022/05/21 06:34:30;;;;;;;;;;;26.30;44.50;;;;;;1594884;74;696;-64
2022/05/21 06:36:32;;;;;;;;;;;26.30;44.40;;;;;;1592423;74;1935;-64
2022/05/21 06:38:34;;;;;;;;;;;26.30;44.30;;;;;;1592637;74;692;-63
2022/05/21 06:40:36;;;;;;;;;;;26.30;44.30;;;;;;1588540;73;1192;-65
2022/05/21 06:42:38;;;;;;;;;;;26.30;44.40;;;;;;1585046;74;1575;-64
2022/05/21 06:44:42;;;;;;;;;;;26.30;44.40;;;;;;1592409;74;713;-62
2022/05/21 06:46:43;;;;;;;;;;;26.30;44.40;;;;;;1600775;74;759;-67
2022/05/21 06:48:45;;;;;;;;;;;26.30;44.30;;;;;;1593092;74;693;-64
2022/05/21 06:50:47;;;;;;;;;;;26.20;44.30;;;;;;1593498;73;1084;-69
2022/05/21 06:52:49;;;;;;;;;;;26.30;44.40;;;;;;1593410;74;697;-64
2022/05/21 06:54:51;;;;;;;;;;;26.20;44.30;;;;;;1604172;74;1937;-64
2022/05/21 06:56:53;;;;;;;;;;;26.20;44.30;;;;;;1593930;74;1519;-64
2022/05/21 06:58:55;;;;;;;;;;;26.30;44.30;;;;;;1594028;74;669;-63
2022/05/21 07:00:57;;;;;;;;;;;26.20;44.30;;;;;;1582512;73;1119;-67
2022/05/21 07:02:59;;;;;;;;;;;26.20;44.40;;;;;;1592416;74;697;-63
2022/05/21 07:07:33;;;;;;;;;;;26.20;44.30;;;;;;1595289;74;1628;-66
2022/05/21 07:09:35;;;;;;;;;;;26.20;44.30;;;;;;1589480;73;1135;-65
2022/05/21 07:11:37;;;;;;;;;;;26.20;44.30;;;;;;1579490;74;1603;-66
2022/05/21 07:13:39;;;;;;;;;;;26.20;44.20;;;;;;1596965;74;724;-66
2022/05/21 07:15:41;;;;;;;;;;;26.20;44.20;;;;;;1586159;74;1932;-65
2022/05/21 07:17:44;;;;;;;;;;;26.10;44.20;;;;;;1596169;73;807;-64
2022/05/21 07:19:46;;;;;;;;;;;26.10;44.30;;;;;;1592391;73;1071;-64
2022/05/21 07:21:48;;;;;;;;;;;26.10;44.20;;;;;;1603251;74;782;-65
2022/05/21 07:23:50;;;;;;;;;;;26.20;44.30;;;;;;1592409;74;741;-66
2022/05/21 07:25:52;;;;;;;;;;;26.20;44.20;;;;;;1599443;74;1545;-65
2022/05/21 07:27:54;;;;;;;;;;;26.20;44.20;;;;;;1599087;74;717;-63
2022/05/21 07:29:56;;;;;;;;;;;26.10;44.20;;;;;;1589361;73;1236;-66
2022/05/21 07:31:58;;;;;;;;;;;26.10;44.20;;;;;;1593038;74;715;-65
2022/05/21 07:34:00;;;;;;;;;;;26.10;44.10;;;;;;1587266;74;775;-65
2022/05/21 07:36:02;;;;;;;;;;;26.10;44.10;;;;;;1597031;74;1907;-64
2022/05/21 07:38:05;;;;;;;;;;;26.00;44.00;;;;;;1586298;74;703;-64
2022/05/21 07:40:07;;;;;;;;;;;26.00;44.00;;;;;;1595423;73;1856;-66
2022/05/21 07:42:09;;;;;;;;;;;26.10;44.00;;;;;;1596603;74;896;-65
2022/05/21 07:44:11;;;;;;;;;;;26.10;44.00;;;;;;1592353;74;695;-69
2022/05/21 07:46:13;;;;;;;;;;;26.10;44.00;;;;;;1599451;74;728;-70
2022/05/21 07:48:17;;;;;;;;;;;26.20;43.80;;;;;;1585835;74;898;-69
2022/05/21 07:50:20;;;;;;;;;;;26.20;43.60;;;;;;1592323;73;1150;-68
2022/05/21 07:52:22;;;;;;;;;;;26.30;43.50;;;;;;1592898;74;718;-69
2022/05/21 07:54:24;;;;;;;;;;;26.40;42.90;;;;;;1593017;74;1714;-68
2022/05/21 07:56:29;;;;;;;;;;;26.30;42.70;;;;;;1579442;75;1942;-70
2022/05/21 07:58:31;;;;;;;;;;;26.40;42.60;;;;;;1589613;74;1696;-69
2022/05/21 08:00:33;;;;;;;;;;;26.40;42.30;;;;;;1589779;73;1119;-69
2022/05/21 08:02:35;;;;;;;;;;;26.50;41.90;;;;;;1592066;75;679;-70
2022/05/21 08:04:36;;;;;;;;;;;26.50;41.50;;;;;;1592215;75;626;-68
2022/05/21 08:06:38;;;;;;;;;;;26.50;41.00;;;;;;1581025;74;1560;-69
2022/05/21 08:08:40;;;;;;;;;;;26.50;40.70;;;;;;1586557;74;702;-68
2022/05/21 08:10:43;;;;;;;;;;;26.50;40.00;;;;;;1592229;73;1116;-69
2022/05/21 08:12:45;;;;;;;;;;;26.40;40.20;;;;;;1590978;74;775;-69
2022/05/21 08:14:47;;;;;;;;;;;26.40;40.00;;;;;;1582843;75;777;-70
2022/05/21 08:16:49;;;;;;;;;;;26.40;39.90;;;;;;1591749;75;1918;-68
2022/05/21 08:18:51;;;;;;;;;;;26.50;39.70;;;;;;1585879;75;682;-69
2022/05/21 08:20:54;;;;;;;;;;;26.50;38.20;;;;;;1592238;73;1489;-68
2022/05/21 08:27:35;;;;;;;;;;;26.50;38.40;;;;;;1591394;74;1658;-68
2022/05/21 08:29:37;;;;;;;;;;;26.40;38.30;;;;;;1584858;74;1190;-68
2022/05/21 08:31:39;;;;;;;;;;;26.40;38.00;;;;;;1592380;74;667;-73
2022/05/21 08:33:41;;;;;;;;;;;26.40;37.90;;;;;;1573780;75;733;-69
2022/05/21 08:35:43;;;;;;;;;;;26.40;37.70;;;;;;1587339;74;1941;-71
2022/05/21 08:37:45;;;;;;;;;;;26.40;37.60;;;;;;1590846;74;669;-69
2022/05/21 08:39:47;;;;;;;;;;;26.40;37.30;;;;;;1589344;73;1163;-69
2022/05/21 08:41:53;;;;;;;;;;;26.40;37.10;;;;;;1588331;75;688;-67
2022/05/21 08:44:02;;;;;;;;;;;26.40;37.00;;;;;;1592040;74;740;-69
2022/05/21 08:46:08;;;;;;;;;;;26.40;36.90;;;;;;1592198;74;703;-70
2022/05/21 08:48:10;;;;;;;;;;;26.40;36.80;;;;;;1586708;74;832;-69
2022/05/21 08:50:16;;;;;;;;;;;26.30;37.00;;;;;;1591021;73;1518;-70
2022/05/21 08:52:19;;;;;;;;;;;26.30;36.80;;;;;;1586946;75;674;-69
2022/05/21 08:54:25;;;;;;;;;;;26.30;36.30;;;;;;1592119;74;644;-69
2022/05/21 08:56:27;;;;;;;;;;;26.30;36.30;;;;;;1574886;75;1936;-72
2022/05/21 08:58:33;;;;;;;;;;;26.30;36.30;;;;;;1592147;75;742;-69
2022/05/21 09:00:39;;;;;;;;;;;26.30;35.90;;;;;;1584601;73;1108;-71
2022/05/21 09:02:41;;;;;;;;;;;26.30;36.00;;;;;;1588256;74;740;-68
2022/05/21 09:04:43;;;;;;;;;;;26.30;36.00;;;;;;1600330;73;1533;-70
2022/05/21 09:06:52;;;;;;;;;;;26.30;35.70;;;;;;1592160;74;740;-71
2022/05/21 09:09:05;;;;;;;;;;;26.30;35.60;;;;;;1592119;75;731;-72
2022/05/21 09:11:14;;;;;;;;;;;26.30;35.70;;;;;;1588623;75;1941;-72
2022/05/21 09:13:17;;;;;;;;;;;26.30;35.80;;;;;;1592186;75;708;-74
2022/05/21 09:16:54;;;;;;;;;;;26.30;36.00;;;;;;1592438;73;690;-72
2022/05/21 09:17:25;;;;;;;;;;;26.30;36.10;;;;;;1583867;74;1936;-74
2022/05/21 09:19:28;;;;;;;;;;;26.20;36.20;;;;;;1592057;73;1159;-73
2022/05/21 09:21:31;;;;;;;;;;;26.30;36.30;;;;;;1592142;75;660;-72
2022/05/21 09:23:47;;;;;;;;;;;26.40;36.30;;;;;;1592287;75;776;-71
2022/05/21 09:25:50;;;;;;;;;;;26.30;36.30;;;;;;1515617;75;986;-71
2022/05/21 09:28:02;;;;;;;;;;;26.30;36.10;;;;;;1581787;74;1457;-70
2022/05/21 09:30:15;;;;;;;;;;;26.30;36.20;;;;;;1589376;73;1181;-72
2022/05/21 09:32:21;;;;;;;;;;;26.50;36.30;;;;;;1587591;74;1503;-72
2022/05/21 09:34:28;;;;;;;;;;;26.40;36.40;;;;;;1591475;75;609;-73
2022/05/21 09:36:33;;;;;;;;;;;26.40;36.40;;;;;;1590386;75;1935;-71
2022/05/21 09:38:38;;;;;;;;;;;26.40;36.50;;;;;;1592315;74;673;-71
2022/05/21 09:40:39;;;;;;;;;;;26.40;36.50;;;;;;1582795;73;1190;-72
2022/05/21 09:45:24;;;;;;;;;;;26.40;36.70;;;;;;1555581;75;674;-73
2022/05/21 09:47:26;;;;;;;;;;;26.40;36.70;;;;;;1560593;75;631;-71
2022/05/21 09:49:31;;;;;;;;;;;26.50;36.80;;;;;;1592131;73;1117;-71
2022/05/21 09:51:33;;;;;;;;;;;26.50;36.90;;;;;;1592436;75;736;-74
2022/05/21 09:53:36;;;;;;;;;;;26.50;36.90;;;;;;1592150;75;675;-71
2022/05/21 09:55:38;;;;;;;;;;;26.40;36.90;;;;;;1591948;75;1771;-74
2022/05/21 09:57:43;;;;;;;;;;;26.40;36.90;;;;;;1589986;74;1937;-71
2022/05/21 09:59:47;;;;;;;;;;;26.50;37.00;;;;;;1590714;75;1644;-71
2022/05/21 10:01:49;;;;;;;;;;;26.50;37.00;;;;;;1587815;73;991;-71
2022/05/21 10:03:53;;;;;;;;;;;26.40;37.10;;;;;;1589327;75;749;-71
2022/05/21 10:05:54;;;;;;;;;;;26.50;37.10;;;;;;1577441;75;693;-72
2022/05/21 10:12:41;;;;;;;;;;;26.50;36.90;;;;;;1588035;75;778;-71
2022/05/21 10:14:48;;;;;;;;;;;26.40;36.90;;;;;;1596580;73;1519;-70
2022/05/21 10:16:52;;;;;;;;;;;26.50;36.90;;;;;;1591903;73;1933;-71
2022/05/21 10:18:55;;;;;;;;;;;26.50;36.90;;;;;;1583532;74;1795;-71
2022/05/21 10:20:58;;;;;;;;;;;26.50;36.80;;;;;;1577987;75;1791;-72
2022/05/21 10:23:02;;;;;;;;;;;26.50;36.90;;;;;;1584039;75;739;-74
2022/05/21 10:25:05;;;;;;;;;;;26.50;37.10;;;;;;1586599;75;2078;-74
2022/05/21 10:27:08;;;;;;;;;;;26.50;36.50;;;;;;1590102;75;693;-73
2022/05/21 10:29:14;;;;;;;;;;;26.50;35.70;;;;;;1588003;74;1821;-75
2022/05/21 10:31:33;;;;;;;;;;;26.40;35.20;;;;;;1597217;73;800;-74
2022/05/21 10:33:40;;;;;;;;;;;26.40;33.30;;;;;;1579890;73;1596;-73
2022/05/21 10:35:53;;;;;;;;;;;26.40;34.50;;;;;;1592128;75;749;-73
2022/05/21 10:37:59;;;;;;;;;;;26.30;34.20;;;;;;1589195;74;1907;-75
2022/05/21 10:40:07;;;;;;;;;;;26.30;33.00;;;;;;1591520;75;1144;-73
2022/05/21 10:42:11;;;;;;;;;;;26.20;34.00;;;;;;1582282;75;1582;-72
2022/05/21 10:44:31;;;;;;;;;;;26.30;32.70;;;;;;1573492;74;679;-72
2022/05/21 10:46:54;;;;;;;;;;;26.20;33.50;;;;;;1585132;73;662;-72
2022/05/21 10:49:13;;;;;;;;;;;26.20;33.30;;;;;;1578323;75;661;-74
2022/05/21 10:51:20;;;;;;;;;;;26.20;32.80;;;;;;1590248;74;652;-72
2022/05/21 10:53:26;;;;;;;;;;;26.00;32.60;;;;;;1582474;75;672;-73
2022/05/21 10:55:41;;;;;;;;;;;26.10;32.50;;;;;;1589497;75;1560;-73
2022/05/21 10:57:53;;;;;;;;;;;26.00;32.30;;;;;;1591176;75;1937;-72
2022/05/21 10:59:57;;;;;;;;;;;26.00;32.60;;;;;;1594175;73;1099;-71
2022/05/21 11:02:18;;;;;;;;;;;26.00;32.30;;;;;;1592266;75;642;-73
2022/05/21 11:04:38;;;;;;;;;;;26.00;32.50;;;;;;1588874;74;1004;-70
2022/05/21 11:06:58;;;;;;;;;;;25.90;31.50;;;;;;1573196;73;682;-72
2022/05/21 11:09:10;;;;;;;;;;;25.90;31.90;;;;;;1592094;75;677;-72
2022/05/21 11:11:14;;;;;;;;;;;25.90;31.60;;;;;;1591732;73;2081;-74
2022/05/21 11:13:17;;;;;;;;;;;26.00;32.30;;;;;;1583288;74;1129;-74
2022/05/21 11:15:21;;;;;;;;;;;26.00;32.10;;;;;;1575392;73;738;-73
2022/05/21 11:17:36;;;;;;;;;;;25.90;31.80;;;;;;1587410;74;1925;-72
2022/05/21 11:19:40;;;;;;;;;;;25.90;31.20;;;;;;1585355;73;1133;-72
2022/05/21 11:21:43;;;;;;;;;;;26.00;31.90;;;;;;1593170;74;1930;-72
2022/05/21 11:23:47;;;;;;;;;;;25.90;30.90;;;;;;1589502;73;1546;-72
2022/05/21 11:25:59;;;;;;;;;;;25.90;31.00;;;;;;1591568;74;1919;-72
2022/05/21 11:28:05;;;;;;;;;;;25.90;31.30;;;;;;1592071;74;777;-74
2022/05/21 11:30:11;;;;;;;;;;;25.80;31.30;;;;;;1593641;73;2021;-71
2022/05/21 11:39:20;;;;;;;;;;;25.80;31.80;;;;;;1588799;73;1672;-71
2022/05/21 11:41:25;;;;;;;;;;;25.80;31.70;;;;;;1591921;73;694;-74
2022/05/21 11:43:27;;;;;;;;;;;25.70;31.80;;;;;;1578477;74;696;-72
2022/05/21 11:45:29;;;;;;;;;;;25.70;31.90;;;;;;1559076;76;1177;-73
2022/05/21 11:47:35;;;;;;;;;;;25.70;32.10;;;;;;1592168;75;661;-71
2022/05/21 11:49:46;;;;;;;;;;;25.80;32.10;;;;;;1590642;75;1155;-70
2022/05/21 11:51:48;;;;;;;;;;;25.90;32.10;;;;;;1586208;74;1558;-73
2022/05/21 11:53:51;;;;;;;;;;;25.80;32.30;;;;;;1591951;75;677;-70
2022/05/21 11:56:00;;;;;;;;;;;25.80;32.50;;;;;;1591961;75;684;-72
2022/05/21 11:58:04;;;;;;;;;;;25.80;32.60;;;;;;1584963;74;1909;-73
2022/05/21 12:00:07;;;;;;;;;;;25.80;32.60;;;;;;1588891;73;1162;-71
2022/05/21 12:02:17;;;;;;;;;;;25.80;32.70;;;;;;1592249;75;652;-71
2022/05/21 12:04:27;;;;;;;;;;;25.80;32.80;;;;;;1590661;75;1891;-72
2022/05/21 12:06:30;;;;;;;;;;;25.70;32.90;;;;;;1584852;75;1699;-71
2022/05/21 12:08:36;;;;;;;;;;;25.80;33.10;;;;;;1585478;75;1879;-73
2022/05/21 12:10:52;;;;;;;;;;;25.80;33.10;;;;;;1592271;73;1114;-74
2022/05/21 12:13:16;;;;;;;;;;;25.80;33.20;;;;;;1542772;75;1102;-71
2022/05/21 12:15:16;;;;;;;;;;;25.80;33.20;;;;;;1593974;73;1573;-71
2022/05/21 12:17:38;;;;;;;;;;;25.80;33.40;;;;;;1583200;74;1905;-72
2022/05/21 12:19:53;;;;;;;;;;;25.80;33.50;;;;;;1495591;77;1117;-77
2022/05/21 12:21:57;;;;;;;;;;;25.80;33.50;;;;;;1492586;78;768;-73
2022/05/21 12:24:05;;;;;;;;;;;25.80;33.50;;;;;;1492492;78;832;-73
2022/05/21 12:26:09;;;;;;;;;;;25.80;33.50;;;;;;1583985;75;906;-74
2022/05/21 12:28:11;;;;;;;;;;;25.80;33.60;;;;;;1592269;75;884;-71
2022/05/21 12:30:23;;;;;;;;;;;25.80;33.70;;;;;;1592168;73;1159;-77
2022/05/21 12:32:26;;;;;;;;;;;25.80;33.80;;;;;;1579951;73;1856;-71
2022/05/21 12:34:47;;;;;;;;;;;25.80;33.80;;;;;;1587249;73;1522;-71
2022/05/21 12:36:56;;;;;;;;;;;25.80;33.90;;;;;;1580484;75;1921;-71
2022/05/21 12:39:00;;;;;;;;;;;25.80;33.90;;;;;;1592248;75;694;-74
2022/05/21 12:41:10;;;;;;;;;;;25.80;34.00;;;;;;1592151;74;1148;-75
2022/05/21 12:43:13;;;;;;;;;;;25.80;34.10;;;;;;1590606;75;797;-72
2022/05/21 12:45:16;;;;;;;;;;;25.80;34.20;;;;;;1591187;74;674;-72
2022/05/21 12:47:23;;;;;;;;;;;25.80;34.20;;;;;;1579643;74;1855;-71
2022/05/21 12:49:25;;;;;;;;;;;25.80;34.20;;;;;;1585294;73;1572;-73
2022/05/21 12:51:31;;;;;;;;;;;25.80;34.20;;;;;;1578509;74;790;-71